Latest Weather Observations for Cerberus

IDV60901

Issued at 8:01 pm EST Friday 30 September 2016 (issued every 10 minutes, with the page automatically refreshed every 10 minutes)

About weather observations | Map of Melbourne area stations | Latest observations for Melbourne area | Other Formats
Station Details ID: 086361 Name: CERBERUS Lat: -38.36 Lon: 145.18 Height: 12.69 m
Data from the previous 72 hours. | See also: Recent months at Cerberus
Date/Time
EST
Temp
°C
App
Temp
°C
Dew
Point
°C
Rel
Hum
%
Delta-T
°C
Wind Press
QNH
hPa
Press
MSL
hPa
Rain since
9am
mm
Dir  Spd
km/h
Gust
km/h
Spd
kts
Gust
kts
30/08:00pm 11.6 10.1 8.6 82 1.5 W 6 7 3 4 996.8 996.8 0.0
30/07:30pm 10.9 9.3 8.1 83 1.4 WSW 6 6 3 3 996.2 996.2 0.0
30/07:00pm 11.2 10.0 7.9 80 1.6 SW 4 6 2 3 995.6 995.6 0.0
30/06:30pm 11.9 10.1 8.0 77 1.9 SW 7 13 4 7 995.5 995.5 0.0
30/06:00pm 12.2 10.6 7.9 75 2.1 SW 6 11 3 6 995.3 995.3 0.0
30/05:30pm 13.1 10.9 8.0 71 2.5 SW 9 15 5 8 994.9 994.9 0.0
30/05:00pm 13.8 11.8 8.8 72 2.5 SW 9 13 5 7 994.4 994.4 0.0
30/04:30pm 13.7 10.9 8.7 72 2.5 SSW 13 19 7 10 994.0 994.0 0.0
30/04:00pm 13.2 10.4 8.7 74 2.3 SSW 13 24 7 13 993.9 993.9 0.0
30/03:30pm 13.2 10.3 8.3 72 2.4 SSW 13 19 7 10 993.6 993.6 0.0
30/03:00pm 13.6 9.8 7.4 66 3.1 SSW 17 24 9 13 993.1 993.1 0.0
30/02:30pm 14.3 11.2 7.4 63 3.4 SSW 13 19 7 10 992.8 992.8 0.0
30/02:00pm 14.7 12.3 8.6 67 3.1 SW 11 15 6 8 992.7 992.7 0.0
30/01:30pm 13.3 10.4 8.2 71 2.5 SW 13 17 7 9 992.7 992.7 0.0
30/01:00pm 13.3 10.9 8.6 73 2.4 SW 11 17 6 9 992.7 992.7 0.0
30/12:30pm 14.1 12.0 6.7 61 3.6 WNW 7 15 4 8 992.4 992.4 0.0
30/12:00pm 13.7 11.5 6.1 60 3.7 WNW 7 13 4 7 992.5 992.5 0.0
30/11:30am 14.0 11.5 8.0 67 3.0 W 11 17 6 9 992.3 992.3 0.0
30/11:00am 13.2 10.6 7.9 70 2.6 WNW 11 17 6 9 992.3 992.3 0.0
30/10:30am 12.7 10.1 7.6 71 2.5 NNW 11 20 6 11 991.8 991.8 0.0
30/10:00am 12.3 9.6 7.4 72 2.4 NW 11 15 6 8 992.1 992.1 0.0
30/09:30am 12.7 11.4 7.6 71 2.5 NW 4 6 2 3 991.8 991.8 0.0
30/09:00am 12.8 10.6 7.9 72 2.4 N 9 15 5 8 991.5 991.5 3.8
30/08:30am 10.9 10.0 7.6 80 1.6 N 2 6 1 3 991.4 991.4 3.8
30/08:00am 9.7 9.1 7.3 85 1.2 CALM 0 2 0 1 991.0 991.0 3.8
30/07:30am 8.6 7.4 6.4 86 1.0 NNW 2 6 1 3 990.4 990.4 3.8
30/07:00am 8.3 6.6 6.1 86 1.0 N 4 6 2 3 990.1 990.1 3.8
30/06:30am 8.9 7.3 6.3 84 1.2 NNE 4 6 2 3 989.9 989.9 3.8
30/06:00am 9.2 7.2 6.3 82 1.4 NE 6 7 3 4 989.5 989.5 3.8
30/05:30am 9.4 7.5 6.7 83 1.3 NE 6 9 3 5 989.2 989.2 3.8
30/05:00am 9.8 7.9 6.5 80 1.6 NE 6 13 3 7 989.0 989.0 3.8
30/04:30am 9.7 7.5 6.2 79 1.6 NE 7 13 4 7 988.7 988.7 3.8
30/04:00am 9.8 6.5 6.2 78 1.7 ENE 13 24 7 13 988.7 988.7 3.8
30/03:30am 9.7 7.2 6.6 81 1.4 E 9 15 5 8 988.7 988.7 3.8
30/03:00am 9.7 7.7 7.1 84 1.2 E 7 13 4 7 988.9 988.9 3.8
30/02:30am 9.6 7.6 7.2 85 1.1 ESE 7 13 4 7 989.0 989.0 3.6
30/02:00am 9.8 7.8 7.2 84 1.2 ESE 7 17 4 9 989.3 989.3 3.0
30/01:30am 9.5 7.1 6.9 84 1.2 ESE 9 15 5 8 989.5 989.5 2.6
30/01:00am 9.9 7.7 6.3 78 1.7 ENE 7 15 4 8 989.8 989.8 1.2
30/12:30am 10.9 7.7 5.2 68 2.6 ENE 11 19 6 10 989.8 989.8 0.4
30/12:00am 10.7 7.7 5.9 72 2.2 ENE 11 15 6 8 990.0 990.0 0.4
 
Date/Time
EST
Temp
°C
App
Temp
°C
Dew
Point
°C
Rel
Hum
%
Delta-T
°C
Wind Press
QNH
hPa
Press
MSL
hPa
Rain since
9am
mm
Dir  Spd
km/h
Gust
km/h
Spd
kts
Gust
kts
29/11:30pm 9.0 6.9 5.6 79 1.5 ENE 6 7 3 4 989.6 989.6 0.4
29/11:00pm 8.9 7.1 5.6 80 1.5 NE 4 6 2 3 989.7 989.7 0.4
29/10:30pm 9.7 8.0 5.7 76 1.8 NE 4 7 2 4 990.0 990.0 0.4
29/10:00pm 9.8 8.0 5.4 74 2.0 ENE 4 9 2 5 990.3 990.3 0.4
29/09:30pm 10.3 8.0 5.5 72 2.2 NE 7 17 4 9 990.5 990.5 0.4
29/09:00pm 10.8 7.6 5.1 68 2.6 NNE 11 24 6 13 990.8 990.8 0.4
29/08:30pm 10.8 8.5 5.8 71 2.3 NNE 7 13 4 7 991.2 991.2 0.4
29/08:00pm 10.9 8.8 5.7 70 2.4 NNE 6 11 3 6 991.0 991.0 0.4
29/07:30pm 11.2 8.8 5.1 66 2.8 N 7 19 4 10 990.8 990.8 0.4
29/07:00pm 11.4 8.5 4.6 63 3.1 NNE 9 17 5 9 990.6 990.6 0.4
29/06:30pm 11.1 8.7 5.2 67 2.7 N 7 15 4 8 990.4 990.4 0.4
29/06:00pm 10.7 7.6 5.7 71 2.3 NNE 11 20 6 11 990.0 990.0 0.4
29/05:30pm 12.4 8.1 5.1 61 3.4 NNW 17 32 9 17 989.6 989.6 0.0
29/05:00pm 15.1 11.1 2.6 43 5.7 NNW 13 22 7 12 988.8 988.8 0.0
29/04:30pm 16.0 12.5 3.4 43 5.8 NNW 11 24 6 13 988.5 988.5 0.0
29/04:00pm 15.9 11.9 2.7 41 6.0 N 13 28 7 15 988.3 988.3 0.0
29/03:30pm 16.1 11.7 2.9 41 6.0 NNW 15 26 8 14 988.0 988.0 0.0
29/03:00pm 16.5 11.9 3.9 43 5.9 NW 17 26 9 14 988.0 988.0 0.0
29/02:30pm 16.3 11.1 3.7 43 5.8 NW 20 35 11 19 988.0 988.0 0.0
29/02:00pm 16.2 11.1 3.3 42 6.0 NNW 19 30 10 16 988.3 988.3 0.0
29/01:30pm 15.6 10.0 3.7 45 5.5 NNW 22 35 12 19 988.6 988.6 0.0
29/01:00pm 15.9 10.4 6.1 52 4.8 NW 24 37 13 20 988.6 988.6 0.0
29/12:30pm 15.9 12.2 7.9 59 4.0 NNW 17 32 9 17 989.2 989.2 0.0
29/12:00pm 14.3 9.8 6.2 58 3.9 NNW 19 28 10 15 989.7 989.7 0.0
29/11:30am 15.0 12.1 8.0 63 3.5 NW 13 19 7 10 989.3 989.3 0.0
29/11:00am 13.6 9.3 7.2 65 3.2 NNW 19 32 10 17 989.1 989.1 0.0
29/10:30am 13.0 10.0 7.9 71 2.5 NNW 13 22 7 12 989.3 989.3 0.0
29/10:00am 12.5 9.9 7.6 72 2.4 NNW 11 20 6 11 989.4 989.4 0.0
29/09:30am 12.4 9.5 8.3 76 2.0 NNW 13 30 7 16 988.6 988.6 0.0
29/09:00am 13.0 9.8 8.3 73 2.4 NNW 15 26 8 14 988.8 988.8 4.8
29/08:30am 13.2 12.1 10.7 85 1.3 N 7 13 4 7 988.7 988.7 4.8
29/08:00am 13.0 11.9 10.7 86 1.2 NNE 7 11 4 6 988.9 988.9 4.8
29/07:30am 13.1 11.7 11.0 87 1.1 NE 9 17 5 9 988.4 988.4 4.8
29/07:00am 12.8 11.4 11.0 89 1.0 NE 9 15 5 8 988.8 988.8 4.8
29/06:30am 12.7 11.3 10.9 89 0.9 NE 9 15 5 8 989.0 989.0 4.6
29/06:00am 12.5 11.0 10.7 89 0.9 NE 9 15 5 8 988.5 988.5 4.4
29/05:30am 12.4 10.9 10.5 88 1.0 NE 9 15 5 8 988.4 988.4 4.0
29/05:00am 12.2 10.6 10.3 88 1.0 ENE 9 15 5 8 988.7 988.7 3.6
29/04:30am 12.8 11.3 10.5 86 1.2 NE 9 19 5 10 989.2 989.2 3.0
29/04:00am 13.0 10.3 10.4 84 1.4 NE 15 28 8 15 989.3 989.3 2.4
29/03:30am 13.3 10.7 10.7 84 1.4 NE 15 28 8 15 989.6 989.6 1.4
29/03:00am 12.5 11.0 9.1 80 1.7 NNE 7 13 4 7 990.6 990.6 0.4
29/02:30am 13.4 11.3 8.3 71 2.5 NE 9 17 5 9 991.2 991.2 0.0
29/02:00am 13.1 11.0 8.4 73 2.4 NE 9 15 5 8 992.4 992.4 0.0
29/01:30am 13.3 10.8 8.4 72 2.4 ENE 11 19 6 10 992.9 992.9 0.0
29/01:00am 12.7 11.3 9.0 78 1.9 NE 6 13 3 7 993.9 993.9 0.0
29/12:30am 13.1 10.6 8.4 73 2.3 NE 11 19 6 10 994.6 994.6 0.0
29/12:00am 13.0 10.2 8.5 74 2.3 ENE 13 19 7 10 995.3 995.3 0.0
 
Date/Time
EST
Temp
°C
App
Temp
°C
Dew
Point
°C
Rel
Hum
%
Delta-T
°C
Wind Press
QNH
hPa
Press
MSL
hPa
Rain since
9am
mm
Dir  Spd
km/h
Gust
km/h
Spd
kts
Gust
kts
28/11:30pm 13.1 10.3 8.6 74 2.2 ENE 13 22 7 12 996.4 996.4 0.0
28/11:00pm 12.7 11.2 8.6 76 2.1 NE 6 11 3 6 997.7 997.7 0.0
28/10:30pm 12.9 10.9 8.6 75 2.1 NE 9 19 5 10 998.6 998.6 0.0
28/10:00pm 13.0 11.0 8.7 75 2.2 NE 9 19 5 10 999.1 999.1 0.0
28/09:30pm 13.1 11.0 8.4 73 2.3 NNE 9 20 5 11 999.4 999.4 0.0
28/09:00pm 13.3 10.4 8.0 70 2.6 NE 13 22 7 12 999.5 999.5 0.0
28/08:30pm 13.8 9.7 8.0 68 2.9 ENE 19 30 10 16 999.7 999.7 0.0
28/08:00pm 14.6 12.0 9.2 70 2.8 ENE 13 19 7 10 1000.0 1000.0 0.0
28/07:30pm 14.6 13.1 8.3 66 3.2 NE 6 9 3 5 1000.9 1000.9 0.0
28/07:00pm 14.8 13.5 7.8 63 3.5 NNE 4 6 2 3 1001.4 1001.4 0.0
28/06:30pm 15.8 14.1 8.5 62 3.7 N 7 11 4 6 1001.3 1001.3 0.0
28/06:00pm 16.2 15.2 10.3 68 3.1 NE 6 9 3 5 1001.5 1001.5 0.0
28/05:30pm 16.7 15.3 9.6 63 3.7 NE 7 13 4 7 1001.7 1001.7 0.0
28/05:00pm 17.1 15.3 9.3 60 4.1 NE 9 15 5 8 1002.4 1002.4 0.0
28/04:30pm 17.6 15.6 8.7 56 4.6 NE 9 15 5 8 1002.5 1002.5 0.0
28/04:00pm 17.8 15.3 8.1 53 5.0 NE 11 20 6 11 1002.3 1002.3 0.0
28/03:30pm 18.3 15.2 7.4 49 5.5 NE 13 24 7 13 1003.0 1003.0 0.0
28/03:00pm 18.1 14.8 6.6 47 5.7 NE 13 22 7 12 1003.6 1003.6 0.0
28/02:30pm 17.9 14.4 7.0 49 5.4 NE 15 26 8 14 1004.3 1004.3 0.0
28/02:00pm 18.0 14.9 7.1 49 5.5 NNE 13 30 7 16 1005.4 1005.4 0.0
28/01:30pm 18.3 15.0 8.0 51 5.3 NE 15 26 8 14 1005.8 1005.8 0.0
28/01:00pm 18.0 14.9 7.1 49 5.5 N 13 22 7 12 1007.2 1007.2 0.0
28/12:30pm 17.5 14.1 7.8 53 4.9 N 15 26 8 14 1008.3 1008.3 0.0
28/12:00pm 16.6 13.0 6.7 52 4.9 NNW 15 28 8 15 1009.3 1009.3 0.0
28/11:30am 16.5 13.2 6.3 51 5.0 NNW 13 28 7 15 1010.0 1010.0 0.0
28/11:00am 16.5 13.6 6.3 51 5.0 NNW 11 20 6 11 1010.6 1010.6 0.0
28/10:30am 16.0 13.1 6.7 54 4.6 NNW 11 20 6 11 1010.8 1010.8 0.0
28/10:00am 15.7 12.9 7.0 56 4.3 NW 11 19 6 10 1011.1 1011.2 0.0
28/09:30am 14.6 11.7 6.4 58 4.0 NNW 11 19 6 10 1011.5 1011.6 0.0
28/09:00am 14.1 11.0 7.4 64 3.3 NNW 13 22 7 12 1011.8 1011.9 0.6
28/08:30am 13.3 11.5 8.0 70 2.6 NNW 7 13 4 7 1012.1 1012.2 0.6
28/08:00am 11.8 9.9 7.7 76 2.0 NNW 7 15 4 8 1012.4 1012.5 0.6
28/07:30am 10.3 8.5 7.9 85 1.2 N 7 15 4 8 1012.5 1012.6 0.6
28/07:00am 8.7 6.9 7.3 91 0.7 NNW 6 9 3 5 1012.4 1012.5 0.6
28/06:30am 7.7 5.6 6.5 92 0.5 N 7 11 4 6 1012.6 1012.7 0.6
28/06:00am 7.1 5.4 5.9 92 0.5 N 4 6 2 3 1012.4 1012.5 0.6
28/05:30am 7.3 5.3 6.1 92 0.5 N 6 7 3 4 1012.1 1012.2 0.6
28/05:00am 7.7 6.1 6.5 92 0.5 N 4 6 2 3 1012.2 1012.3 0.6
28/04:30am 7.3 6.0 5.8 90 0.7 N 2 4 1 2 1012.0 1012.1 0.6
28/04:00am 8.4 6.6 7.0 91 0.7 N 6 7 3 4 1012.0 1012.1 0.6
28/03:30am 7.8 6.3 6.6 92 0.6 NNW 4 6 2 3 1012.0 1012.1 0.6
28/03:00am 8.1 6.3 7.0 93 0.5 NNW 6 9 3 5 1012.1 1012.2 0.6
28/02:30am 6.1 4.6 4.9 92 0.5 N 2 6 1 3 1012.0 1012.1 0.6
28/02:00am 6.0 4.8 4.8 92 0.5 CALM 0 4 0 2 1012.0 1012.1 0.6
28/01:30am 8.0 6.1 6.8 92 0.6 NNE 6 6 3 3 1012.1 1012.2 0.6
28/01:00am 6.8 5.8 5.6 92 0.5 CALM 0 0 0 0 1012.3 1012.4 0.6
28/12:30am 7.2 5.9 5.8 91 0.6 NNE 2 4 1 2 1012.4 1012.5 0.6
28/12:00am 7.0 6.0 5.6 91 0.6 CALM 0 4 0 2 1012.3 1012.4 0.6
 
Date/Time
EST
Temp
°C
App
Temp
°C
Dew
Point
°C
Rel
Hum
%
Delta-T
°C
Wind Press
QNH
hPa
Press
MSL
hPa
Rain since
9am
mm
Dir  Spd
km/h
Gust
km/h
Spd
kts
Gust
kts
27/11:30pm 6.6 5.5 5.1 90 0.7 CALM 0 0 0 0 1012.4 1012.5 0.6
27/11:00pm 7.9 6.3 6.4 90 0.7 N 4 6 2 3 1012.5 1012.6 0.6
27/10:30pm 8.1 6.6 6.6 90 0.7 N 4 7 2 4 1012.7 1012.8 0.6
27/10:00pm 7.5 5.4 6.0 90 0.7 N 6 7 3 4 1012.8 1012.9 0.6
27/09:30pm 7.1 5.3 5.6 90 0.7 N 4 6 2 3 1012.9 1013.0 0.6
27/09:00pm 7.5 5.4 6.0 90 0.7 N 6 7 3 4 1012.9 1013.0 0.6
27/08:30pm 7.4 5.7 5.7 89 0.8 N 4 6 2 3 1013.0 1013.1 0.6

Latest Capital City Observations: Canberra | Sydney | Melbourne | Brisbane | Adelaide | Perth | Hobart | Darwin

Other Formats:

Comma delimited format used in spreadsheet applications
http://www.bom.gov.au/fwo/IDV60901/IDV60901.94898.axf

JavaScript Object Notation format (JSON) in row-major order
http://www.bom.gov.au/fwo/IDV60901/IDV60901.94898.json